createdAt,value
2022-10-08T00:00:26.697Z,86.83
2022-10-08T00:01:26.742Z,86.83
2022-10-08T00:02:26.685Z,86.74
2022-10-08T00:03:26.691Z,86.83
2022-10-08T00:04:26.735Z,86.83
2022-10-08T00:05:26.670Z,86.83
2022-10-08T00:06:26.649Z,86.74
2022-10-08T00:07:26.640Z,86.83
2022-10-08T00:08:26.628Z,86.83
2022-10-08T00:09:26.634Z,86.83
2022-10-08T00:10:26.627Z,86.83
2022-10-08T00:11:26.644Z,86.83
2022-10-08T00:12:26.611Z,86.83
2022-10-08T00:13:26.606Z,86.83
2022-10-08T00:14:26.587Z,86.83
2022-10-08T00:15:26.588Z,86.83
2022-10-08T00:16:26.672Z,86.83
2022-10-08T00:17:26.574Z,86.83
2022-10-08T00:18:26.546Z,86.83
2022-10-08T00:19:26.539Z,86.83
2022-10-08T00:20:26.523Z,86.83
2022-10-08T00:21:26.527Z,86.83
2022-10-08T00:22:26.504Z,86.83
2022-10-08T00:23:26.515Z,86.83
2022-10-08T00:24:26.485Z,86.83
2022-10-08T00:25:26.496Z,86.83
2022-10-08T00:26:26.479Z,86.83
2022-10-08T00:27:26.479Z,86.83
2022-10-08T00:28:26.557Z,86.83
2022-10-08T00:29:26.466Z,86.83
2022-10-08T00:30:26.437Z,86.94
2022-10-08T00:31:26.512Z,86.94
2022-10-08T00:32:26.430Z,86.94
2022-10-08T00:33:26.431Z,86.94
2022-10-08T00:34:26.398Z,86.94
2022-10-08T00:35:26.431Z,86.94
2022-10-08T00:36:26.397Z,87.04
2022-10-08T00:37:26.369Z,87.04
2022-10-08T00:38:26.359Z,87.04
2022-10-08T00:39:26.367Z,87.14
2022-10-08T00:40:26.353Z,87.14
2022-10-08T00:41:26.361Z,87.14
2022-10-08T00:42:26.320Z,87.14
2022-10-08T00:43:26.321Z,87.14
2022-10-08T00:44:26.315Z,87.14
2022-10-08T00:45:26.353Z,87.14
2022-10-08T00:46:26.317Z,87.04
2022-10-08T00:47:26.328Z,87.04
2022-10-08T00:48:26.284Z,87.04
2022-10-08T00:49:26.263Z,87.14
2022-10-08T00:50:26.263Z,87.14
2022-10-08T00:51:26.257Z,87.14
2022-10-08T00:52:26.234Z,87.14
2022-10-08T00:53:26.258Z,87.14
2022-10-08T00:54:26.229Z,87.14
2022-10-08T00:55:26.213Z,87.14
2022-10-08T00:56:26.195Z,87.14
2022-10-08T00:57:26.195Z,87.14
2022-10-08T00:58:26.178Z,87.04
2022-10-08T00:59:26.199Z,87.10
2022-10-08T01:00:26.172Z,87.10
2022-10-08T01:01:26.201Z,87.14
2022-10-08T01:02:26.210Z,87.10
2022-10-08T01:03:26.151Z,87.20
2022-10-08T01:04:26.147Z,87.20
2022-10-08T01:05:26.142Z,87.20
2022-10-08T01:06:26.112Z,87.20
2022-10-08T01:07:26.101Z,87.20
2022-10-08T01:08:26.094Z,87.20
2022-10-08T01:09:26.093Z,87.20
2022-10-08T01:10:26.083Z,87.20
2022-10-08T01:11:26.082Z,87.20
2022-10-08T01:12:26.051Z,87.20
2022-10-08T01:13:26.041Z,87.20
2022-10-08T01:14:26.044Z,87.20
2022-10-08T01:15:26.021Z,87.20
2022-10-08T01:16:26.061Z,87.20
2022-10-08T01:17:26.037Z,87.20
2022-10-08T01:18:26.007Z,87.20
2022-10-08T01:19:26.007Z,87.20
2022-10-08T01:20:25.977Z,87.20
2022-10-08T01:21:25.976Z,87.20
2022-10-08T01:22:25.978Z,87.20
2022-10-08T01:23:25.981Z,87.20
2022-10-08T01:24:25.945Z,87.20
2022-10-08T01:25:25.935Z,87.20
2022-10-08T01:26:25.938Z,87.20
2022-10-08T01:27:25.931Z,87.20
2022-10-08T01:28:25.982Z,87.30
2022-10-08T01:29:25.916Z,87.30
2022-10-08T01:30:25.888Z,87.30
2022-10-08T01:31:25.931Z,87.30
2022-10-08T01:32:25.884Z,87.30
2022-10-08T01:33:25.881Z,87.30
2022-10-08T01:34:25.861Z,87.30
2022-10-08T01:35:25.860Z,87.30
2022-10-08T01:36:25.842Z,87.30
2022-10-08T01:37:25.829Z,87.30
2022-10-08T01:38:25.831Z,87.30
2022-10-08T01:39:25.824Z,87.30
2022-10-08T01:40:25.801Z,87.30
2022-10-08T01:41:25.818Z,87.30
2022-10-08T01:42:25.781Z,87.30
2022-10-08T01:43:25.785Z,87.30
2022-10-08T01:44:25.763Z,87.30
2022-10-08T01:45:25.793Z,87.41
2022-10-08T01:46:25.756Z,87.30
2022-10-08T01:47:25.762Z,87.30
2022-10-08T01:48:25.736Z,87.41
2022-10-08T01:49:25.723Z,87.41
2022-10-08T01:50:25.713Z,87.30
2022-10-08T01:51:25.719Z,87.30
2022-10-08T01:52:25.709Z,87.41
2022-10-08T01:53:25.855Z,87.41
2022-10-08T01:54:25.685Z,87.41
2022-10-08T01:55:25.665Z,87.41
2022-10-08T01:56:25.670Z,87.41
2022-10-08T01:57:25.659Z,87.41
2022-10-08T01:58:25.660Z,87.51
2022-10-08T01:59:25.660Z,87.41
2022-10-08T02:00:25.638Z,87.51
2022-10-08T02:01:25.635Z,87.51
2022-10-08T02:02:25.697Z,87.51
2022-10-08T02:03:25.588Z,87.51
2022-10-08T02:04:25.603Z,87.51
2022-10-08T02:05:25.598Z,87.51
2022-10-08T02:06:25.569Z,87.51
2022-10-08T02:07:25.549Z,87.51
2022-10-08T02:08:25.549Z,87.51
2022-10-08T02:09:25.553Z,87.51
2022-10-08T02:10:25.544Z,87.51
2022-10-08T02:11:25.547Z,87.51
2022-10-08T02:12:25.526Z,87.51
2022-10-08T02:13:25.515Z,87.51
2022-10-08T02:14:25.505Z,87.51
2022-10-08T02:15:25.496Z,87.61
2022-10-08T02:16:25.585Z,87.61
2022-10-08T02:17:25.492Z,87.61
2022-10-08T02:18:25.474Z,87.61
2022-10-08T02:19:25.457Z,87.61
2022-10-08T02:20:25.444Z,87.61
2022-10-08T02:21:25.425Z,87.61
2022-10-08T02:22:25.438Z,87.61
2022-10-08T02:23:25.438Z,87.61
2022-10-08T02:24:25.419Z,87.61
2022-10-08T02:25:25.398Z,87.61
2022-10-08T02:26:25.401Z,87.71
2022-10-08T02:27:25.376Z,87.67
2022-10-08T02:28:25.436Z,87.71
2022-10-08T02:29:25.467Z,87.71
2022-10-08T02:30:25.379Z,87.71
2022-10-08T02:31:25.375Z,87.71
2022-10-08T02:32:25.350Z,87.67
2022-10-08T02:33:25.332Z,87.67
2022-10-08T02:34:25.332Z,87.67
2022-10-08T02:35:25.365Z,87.71
2022-10-08T02:36:25.313Z,87.67
2022-10-08T02:37:25.304Z,87.67
2022-10-08T02:38:25.298Z,87.67
2022-10-08T02:39:25.270Z,87.67
2022-10-08T02:40:25.261Z,87.77
2022-10-08T02:41:25.262Z,87.77
2022-10-08T02:42:25.254Z,87.77
2022-10-08T02:43:25.234Z,87.77
2022-10-08T02:44:25.232Z,87.77
2022-10-08T02:45:25.226Z,87.77
2022-10-08T02:46:25.226Z,87.77
2022-10-08T02:47:25.213Z,87.77
2022-10-08T02:48:25.195Z,87.77
2022-10-08T02:49:25.184Z,87.77
2022-10-08T02:50:25.187Z,87.77
2022-10-08T02:51:25.181Z,87.87
2022-10-08T02:52:25.155Z,87.87
2022-10-08T02:53:25.181Z,87.77
2022-10-08T02:54:25.138Z,87.87
2022-10-08T02:55:25.127Z,87.87
2022-10-08T02:56:25.140Z,87.87
2022-10-08T02:57:25.120Z,87.87
2022-10-08T02:58:25.120Z,87.87
2022-10-08T02:59:25.132Z,87.87
2022-10-08T03:00:25.088Z,87.87
2022-10-08T03:01:25.155Z,87.87
2022-10-08T03:02:25.123Z,87.87
2022-10-08T03:03:25.063Z,87.87
2022-10-08T03:04:25.062Z,87.87
2022-10-08T03:05:25.075Z,87.87
2022-10-08T03:06:25.030Z,87.87
2022-10-08T03:07:25.030Z,87.87
2022-10-08T03:08:25.010Z,87.98
2022-10-08T03:09:25.018Z,87.87
2022-10-08T03:10:24.999Z,87.98
2022-10-08T03:11:25.005Z,87.98
2022-10-08T03:12:24.983Z,87.87
2022-10-08T03:13:24.963Z,87.98
2022-10-08T03:14:24.963Z,87.98
2022-10-08T03:15:24.942Z,87.98
2022-10-08T03:16:24.968Z,87.98
2022-10-08T03:17:24.946Z,87.98
2022-10-08T03:18:24.925Z,87.98
2022-10-08T03:19:24.914Z,87.98
2022-10-08T03:20:24.918Z,87.98
2022-10-08T03:21:24.894Z,87.98
2022-10-08T03:22:24.914Z,87.98
2022-10-08T03:23:24.895Z,87.98
2022-10-08T03:24:24.866Z,87.98
2022-10-08T03:25:24.869Z,88.08
2022-10-08T03:26:24.855Z,87.98
2022-10-08T03:27:24.864Z,87.98
2022-10-08T03:28:24.890Z,87.98
2022-10-08T03:29:24.828Z,87.98
2022-10-08T03:30:24.871Z,87.93
2022-10-08T03:31:24.811Z,87.98
2022-10-08T03:32:24.823Z,87.93
2022-10-08T03:33:24.801Z,87.98
2022-10-08T03:34:24.780Z,88.08
2022-10-08T03:35:24.813Z,87.93
2022-10-08T03:36:24.774Z,87.98
2022-10-08T03:37:24.763Z,87.98
2022-10-08T03:38:24.740Z,88.04
2022-10-08T03:39:24.746Z,88.08
2022-10-08T03:40:24.743Z,88.08
2022-10-08T03:41:24.742Z,88.08
2022-10-08T03:42:24.729Z,88.04
2022-10-08T03:43:24.692Z,88.04
2022-10-08T03:44:24.692Z,88.04
2022-10-08T03:45:24.681Z,88.04
2022-10-08T03:46:24.695Z,88.04
2022-10-08T03:47:24.686Z,88.04
2022-10-08T03:48:24.670Z,88.04
2022-10-08T03:49:24.648Z,88.04
2022-10-08T03:50:24.648Z,88.04
2022-10-08T03:51:24.625Z,88.04
2022-10-08T03:52:24.614Z,88.04
2022-10-08T03:53:24.637Z,88.04
2022-10-08T03:54:24.610Z,88.04
2022-10-08T03:55:24.600Z,88.04
2022-10-08T03:56:24.585Z,88.04
2022-10-08T03:57:24.580Z,88.04
2022-10-08T03:58:24.567Z,88.13
2022-10-08T03:59:24.582Z,88.13
2022-10-08T04:00:24.563Z,88.13
2022-10-08T04:01:24.588Z,88.13
2022-10-08T04:02:24.584Z,88.13
2022-10-08T04:03:24.524Z,88.13
2022-10-08T04:04:25.671Z,88.13
2022-10-08T04:05:24.627Z,88.13
2022-10-08T04:06:24.504Z,88.13
2022-10-08T04:07:24.479Z,88.13
2022-10-08T04:08:24.470Z,88.13
2022-10-08T04:09:24.475Z,88.13
2022-10-08T04:10:24.451Z,88.13
2022-10-08T04:11:24.462Z,88.13
2022-10-08T04:12:24.455Z,88.13
2022-10-08T04:13:24.424Z,88.13
2022-10-08T04:14:24.436Z,88.13
2022-10-08T04:15:24.417Z,88.13
2022-10-08T04:16:24.403Z,88.13
2022-10-08T04:17:24.428Z,88.13
2022-10-08T04:18:24.398Z,88.13
2022-10-08T04:19:24.388Z,88.13
2022-10-08T04:20:24.365Z,88.13
2022-10-08T04:21:24.361Z,88.24
2022-10-08T04:22:24.346Z,88.24
2022-10-08T04:23:24.370Z,88.24
2022-10-08T04:24:24.340Z,88.24
2022-10-08T04:25:24.331Z,88.24
2022-10-08T04:26:24.328Z,88.24
2022-10-08T04:27:24.297Z,88.24
2022-10-08T04:28:24.337Z,88.24
2022-10-08T04:29:24.311Z,88.24
2022-10-08T04:30:24.292Z,88.24
2022-10-08T04:31:24.308Z,88.24
2022-10-08T04:32:24.258Z,88.24
2022-10-08T04:33:24.252Z,88.24
2022-10-08T04:34:24.253Z,88.24
2022-10-08T04:35:24.249Z,88.24
2022-10-08T04:36:24.220Z,88.24
2022-10-08T04:37:24.214Z,88.34
2022-10-08T04:38:24.201Z,88.34
2022-10-08T04:39:24.202Z,88.34
2022-10-08T04:40:24.195Z,88.34
2022-10-08T04:41:24.191Z,88.34
2022-10-08T04:42:24.165Z,88.34
2022-10-08T04:43:24.152Z,88.24
2022-10-08T04:44:24.144Z,88.24
2022-10-08T04:45:24.151Z,88.24
2022-10-08T04:46:24.190Z,88.24
2022-10-08T04:47:24.147Z,88.24
2022-10-08T04:48:24.113Z,88.24
2022-10-08T04:49:24.095Z,88.24
2022-10-08T04:50:24.109Z,88.24
2022-10-08T04:51:24.074Z,88.24
2022-10-08T04:52:24.090Z,88.24
2022-10-08T04:53:24.098Z,88.24
2022-10-08T04:54:24.070Z,88.34
2022-10-08T04:55:24.038Z,88.34
2022-10-08T04:56:24.038Z,88.34
2022-10-08T04:57:24.042Z,88.34
2022-10-08T04:58:24.032Z,88.34
2022-10-08T04:59:24.034Z,88.24
2022-10-08T05:00:24.000Z,88.24
2022-10-08T05:01:24.039Z,88.24
2022-10-08T05:02:24.009Z,88.20
2022-10-08T05:03:23.987Z,88.34
2022-10-08T05:04:23.968Z,88.44
2022-10-08T05:05:23.974Z,88.34
2022-10-08T05:06:23.972Z,88.34
2022-10-08T05:07:23.947Z,88.34
2022-10-08T05:08:23.948Z,88.30
2022-10-08T05:09:23.919Z,88.34
2022-10-08T05:10:23.927Z,88.34
2022-10-08T05:11:23.939Z,88.34
2022-10-08T05:12:23.906Z,88.34
2022-10-08T05:13:23.882Z,88.34
2022-10-08T05:14:23.883Z,88.34
2022-10-08T05:15:23.867Z,88.34
2022-10-08T05:16:23.917Z,88.34
2022-10-08T05:17:23.994Z,88.34
2022-10-08T05:18:23.845Z,88.34
2022-10-08T05:19:23.832Z,88.34
2022-10-08T05:20:23.840Z,88.34
2022-10-08T05:21:23.822Z,88.34
2022-10-08T05:22:23.806Z,88.34
2022-10-08T05:23:23.809Z,88.34
2022-10-08T05:24:23.802Z,88.34
2022-10-08T05:25:23.792Z,88.34
2022-10-08T05:26:41.390Z,88.34
2022-10-08T05:27:23.758Z,88.34
2022-10-08T05:28:23.819Z,88.34
2022-10-08T05:29:23.773Z,88.30
2022-10-08T05:30:23.750Z,88.44
2022-10-08T05:31:23.777Z,88.30
2022-10-08T05:32:23.720Z,88.30
2022-10-08T05:33:23.700Z,88.44
2022-10-08T05:34:23.712Z,88.30
2022-10-08T05:35:23.723Z,88.40
2022-10-08T05:36:23.681Z,88.40
2022-10-08T05:37:23.675Z,88.40
2022-10-08T05:38:23.675Z,88.40
2022-10-08T05:39:23.651Z,88.44
2022-10-08T05:40:23.656Z,88.40
2022-10-08T05:41:23.642Z,88.40
2022-10-08T05:42:23.622Z,88.40
2022-10-08T05:43:23.612Z,88.40
2022-10-08T05:44:23.603Z,88.40
2022-10-08T05:45:23.607Z,88.40
2022-10-08T05:46:23.625Z,88.40
2022-10-08T05:47:23.598Z,88.40
2022-10-08T05:48:23.588Z,88.40
2022-10-08T05:49:23.567Z,88.40
2022-10-08T05:50:23.555Z,88.40
2022-10-08T05:51:23.544Z,88.50
2022-10-08T05:52:23.549Z,88.40
2022-10-08T05:53:23.547Z,88.50
2022-10-08T05:54:23.530Z,88.50
2022-10-08T05:55:23.506Z,88.50
2022-10-08T05:56:23.510Z,88.50
2022-10-08T05:57:23.487Z,88.50
2022-10-08T05:58:26.315Z,88.50
2022-10-08T05:59:23.501Z,88.50
2022-10-08T06:00:23.472Z,88.50
2022-10-08T06:01:23.448Z,88.50
2022-10-08T06:02:23.502Z,88.50
2022-10-08T06:03:23.429Z,88.50
2022-10-08T06:04:23.469Z,88.50
2022-10-08T06:05:23.422Z,88.50
2022-10-08T06:06:23.409Z,88.50
2022-10-08T06:07:23.405Z,88.50
2022-10-08T06:08:23.406Z,88.50
2022-10-08T06:09:23.386Z,88.50
2022-10-08T06:10:23.376Z,88.50
2022-10-08T06:11:23.382Z,88.60
2022-10-08T06:12:23.356Z,88.60
2022-10-08T06:13:23.357Z,88.60
2022-10-08T06:14:23.346Z,88.60
2022-10-08T06:15:23.324Z,88.60
2022-10-08T06:16:23.360Z,88.50
2022-10-08T06:17:23.325Z,88.60
2022-10-08T06:18:23.297Z,88.60
2022-10-08T06:19:23.286Z,88.50
2022-10-08T06:20:23.289Z,88.60
2022-10-08T06:21:23.275Z,88.60
2022-10-08T06:22:23.269Z,88.60
2022-10-08T06:23:23.299Z,88.60
2022-10-08T06:24:23.247Z,88.60
2022-10-08T06:25:23.253Z,88.60
2022-10-08T06:26:23.239Z,88.60
2022-10-08T06:27:23.232Z,88.60
2022-10-08T06:28:23.248Z,88.60
2022-10-08T06:29:23.231Z,88.60
2022-10-08T06:30:23.202Z,88.60
2022-10-08T06:31:23.239Z,88.71
2022-10-08T06:32:23.169Z,88.71
2022-10-08T06:33:23.181Z,88.71
2022-10-08T06:34:23.150Z,88.71
2022-10-08T06:35:23.171Z,88.81
2022-10-08T06:36:23.131Z,88.71
2022-10-08T06:37:23.144Z,88.71
2022-10-08T06:38:23.111Z,88.67
2022-10-08T06:39:23.113Z,88.67
2022-10-08T06:40:23.110Z,88.67
2022-10-08T06:41:23.102Z,88.67
2022-10-08T06:42:23.086Z,88.67
2022-10-08T06:43:23.073Z,88.67
2022-10-08T06:44:23.064Z,88.67
2022-10-08T06:45:23.058Z,88.67
2022-10-08T06:46:23.104Z,88.67
2022-10-08T06:47:23.055Z,88.67
2022-10-08T06:48:23.025Z,88.76
2022-10-08T06:49:23.029Z,88.87
2022-10-08T06:50:23.019Z,88.87
2022-10-08T06:51:23.017Z,88.97
2022-10-08T06:52:23.000Z,88.97
2022-10-08T06:53:22.997Z,88.97
2022-10-08T06:54:22.966Z,88.97
2022-10-08T06:55:22.980Z,88.97
2022-10-08T06:56:22.973Z,88.97
2022-10-08T06:57:22.948Z,88.87
2022-10-08T06:58:22.936Z,88.87
2022-10-08T06:59:22.948Z,88.87
2022-10-08T07:00:22.929Z,88.87
2022-10-08T07:01:22.988Z,88.87
2022-10-08T07:02:22.945Z,88.87
2022-10-08T07:03:22.892Z,88.87
2022-10-08T07:04:22.895Z,88.87
2022-10-08T07:05:22.892Z,88.87
2022-10-08T07:06:22.874Z,88.87
2022-10-08T07:07:22.885Z,88.87
2022-10-08T07:08:22.842Z,88.97
2022-10-08T07:09:22.842Z,88.93
2022-10-08T07:10:22.833Z,88.93
2022-10-08T07:11:22.845Z,89.03
2022-10-08T07:12:22.812Z,89.03
2022-10-08T07:13:22.817Z,89.03
2022-10-08T07:14:22.810Z,89.03
2022-10-08T07:15:22.784Z,89.03
2022-10-08T07:16:22.825Z,89.03
2022-10-08T07:17:22.798Z,89.03
2022-10-08T07:18:22.761Z,89.03
2022-10-08T07:19:22.757Z,89.03
2022-10-08T07:20:22.736Z,89.03
2022-10-08T07:21:22.738Z,89.03
2022-10-08T07:22:22.737Z,89.13
2022-10-08T07:23:22.886Z,89.13
2022-10-08T07:24:22.707Z,89.23
2022-10-08T07:25:22.707Z,89.43
2022-10-08T07:26:22.689Z,89.33
2022-10-08T07:27:22.702Z,89.33
2022-10-08T07:28:22.703Z,89.23
2022-10-08T07:29:22.693Z,89.23
2022-10-08T07:30:22.658Z,89.23
2022-10-08T07:31:22.700Z,89.23
2022-10-08T07:32:22.654Z,89.19
2022-10-08T07:33:22.631Z,89.19
2022-10-08T07:34:22.620Z,89.19
2022-10-08T07:35:22.635Z,89.19
2022-10-08T07:36:22.616Z,89.19
2022-10-08T07:37:22.601Z,89.19
2022-10-08T07:38:22.591Z,89.09
2022-10-08T07:39:22.594Z,89.09
2022-10-08T07:40:22.563Z,89.09
2022-10-08T07:41:22.587Z,89.09
2022-10-08T07:42:22.543Z,88.99
2022-10-08T07:43:22.558Z,89.09
2022-10-08T07:44:22.524Z,88.99
2022-10-08T07:45:22.577Z,88.99
2022-10-08T07:46:22.529Z,88.99
2022-10-08T07:47:22.526Z,88.99
2022-10-08T07:48:22.508Z,88.99
2022-10-08T07:49:22.506Z,88.99
2022-10-08T07:50:22.490Z,88.99
2022-10-08T07:51:22.477Z,88.99
2022-10-08T07:52:22.481Z,88.99
2022-10-08T07:53:22.505Z,88.99
2022-10-08T07:54:22.437Z,88.99
2022-10-08T07:55:22.450Z,88.99
2022-10-08T07:56:22.453Z,88.99
2022-10-08T07:57:22.439Z,88.99
2022-10-08T07:58:22.419Z,88.99
2022-10-08T07:59:22.421Z,88.99
2022-10-08T08:00:26.003Z,88.99
2022-10-08T08:01:22.446Z,88.99
2022-10-08T08:02:22.486Z,88.99
2022-10-08T08:03:22.370Z,88.99
2022-10-08T08:04:22.351Z,89.09
2022-10-08T08:05:22.365Z,89.09
2022-10-08T08:06:22.333Z,89.09
2022-10-08T08:07:22.336Z,89.09
2022-10-08T08:08:22.312Z,89.04
2022-10-08T08:09:22.326Z,89.09
2022-10-08T08:10:22.308Z,89.04
2022-10-08T08:11:22.314Z,89.04
2022-10-08T08:12:22.316Z,89.04
2022-10-08T08:13:22.275Z,89.15
2022-10-08T08:14:22.266Z,89.15
2022-10-08T08:15:22.270Z,89.15
2022-10-08T08:16:22.338Z,89.15
2022-10-08T08:17:22.272Z,89.15
2022-10-08T08:18:22.226Z,89.25
2022-10-08T08:19:22.226Z,89.25
2022-10-08T08:20:22.225Z,89.35
2022-10-08T08:21:22.222Z,89.35
2022-10-08T08:22:22.189Z,89.35
2022-10-08T08:23:22.196Z,89.45
2022-10-08T08:24:22.183Z,89.45
2022-10-08T08:25:22.182Z,89.55
2022-10-08T08:26:22.158Z,89.51
2022-10-08T08:27:22.164Z,89.51
2022-10-08T08:28:22.237Z,89.51
2022-10-08T08:29:22.269Z,89.51
2022-10-08T08:30:22.120Z,89.51
2022-10-08T08:31:22.154Z,89.51
2022-10-08T08:32:27.565Z,89.61
2022-10-08T08:33:22.102Z,89.61
2022-10-08T08:34:22.085Z,89.61
2022-10-08T08:35:22.105Z,89.61
2022-10-08T08:36:22.076Z,89.61
2022-10-08T08:37:22.081Z,89.61
2022-10-08T08:38:22.058Z,89.57
2022-10-08T08:39:22.044Z,89.57
2022-10-08T08:40:22.033Z,89.57
2022-10-08T08:41:22.048Z,89.67
2022-10-08T08:42:22.034Z,89.67
2022-10-08T08:43:22.023Z,89.67
2022-10-08T08:44:22.010Z,89.57
2022-10-08T08:45:44.677Z,89.57
2022-10-08T08:46:22.087Z,89.57
2022-10-08T08:47:21.997Z,89.47
2022-10-08T08:48:21.972Z,89.53
2022-10-08T08:49:21.956Z,89.53
2022-10-08T08:50:21.950Z,89.53
2022-10-08T08:51:21.951Z,89.53
2022-10-08T08:52:21.918Z,89.53
2022-10-08T08:53:21.931Z,89.63
2022-10-08T08:54:21.912Z,89.73
2022-10-08T08:55:21.899Z,89.73
2022-10-08T08:56:21.887Z,89.73
2022-10-08T08:57:21.881Z,89.83
2022-10-08T08:58:21.881Z,89.83
2022-10-08T08:59:21.871Z,89.83
2022-10-08T09:00:21.855Z,89.79
2022-10-08T09:01:21.882Z,89.99
2022-10-08T09:02:21.844Z,89.89
2022-10-08T09:03:21.822Z,89.79
2022-10-08T09:04:21.826Z,89.79
2022-10-08T09:05:21.856Z,89.79
2022-10-08T09:06:21.793Z,89.89
2022-10-08T09:07:21.795Z,89.79
2022-10-08T09:08:21.777Z,89.79
2022-10-08T09:09:21.777Z,89.89
2022-10-08T09:10:21.755Z,89.89
2022-10-08T09:11:21.778Z,89.95
2022-10-08T09:12:21.745Z,89.95
2022-10-08T09:13:21.749Z,89.85
2022-10-08T09:14:21.725Z,89.85
2022-10-08T09:15:21.716Z,89.85
2022-10-08T09:16:21.778Z,89.85
2022-10-08T09:17:21.706Z,90.05
2022-10-08T09:18:21.701Z,90.05
2022-10-08T09:19:21.691Z,89.95
2022-10-08T09:20:21.709Z,90.05
2022-10-08T09:21:21.672Z,90.05
2022-10-08T09:22:21.649Z,89.91
2022-10-08T09:23:21.659Z,89.91
2022-10-08T09:24:21.645Z,89.91
2022-10-08T09:25:21.630Z,89.91
2022-10-08T09:26:21.610Z,90.01
2022-10-08T09:27:21.623Z,89.91
2022-10-08T09:28:21.646Z,89.91
2022-10-08T09:29:21.603Z,89.91
2022-10-08T09:30:21.635Z,89.91
2022-10-08T09:31:21.640Z,89.81
2022-10-08T09:32:21.581Z,89.81
2022-10-08T09:33:21.564Z,89.81
2022-10-08T09:34:21.557Z,89.91
2022-10-08T09:35:21.557Z,89.91
2022-10-08T09:36:21.525Z,89.91
2022-10-08T09:37:21.514Z,89.91
2022-10-08T09:38:21.518Z,89.91
2022-10-08T09:39:21.508Z,89.81
2022-10-08T09:40:21.751Z,89.81
2022-10-08T09:41:21.517Z,89.91
2022-10-08T09:42:21.475Z,89.91
2022-10-08T09:43:21.474Z,89.81
2022-10-08T09:44:21.460Z,89.91
2022-10-08T09:45:22.277Z,89.91
2022-10-08T09:46:21.506Z,89.81
2022-10-08T09:47:21.464Z,89.81
2022-10-08T09:48:21.431Z,89.81
2022-10-08T09:49:21.422Z,89.81
2022-10-08T09:50:21.416Z,89.91
2022-10-08T09:51:21.413Z,89.87
2022-10-08T09:52:21.394Z,89.87
2022-10-08T09:53:21.393Z,89.97
2022-10-08T09:54:21.361Z,89.97
2022-10-08T09:55:21.362Z,89.97
2022-10-08T09:56:21.355Z,89.87
2022-10-08T09:57:21.354Z,89.76
2022-10-08T09:58:21.335Z,89.76
2022-10-08T09:59:21.342Z,89.66
2022-10-08T10:00:21.317Z,89.66
2022-10-08T10:01:21.404Z,89.66
2022-10-08T10:02:21.291Z,89.66
2022-10-08T10:03:21.297Z,89.56
2022-10-08T10:04:21.289Z,89.66
2022-10-08T10:05:21.284Z,89.66
2022-10-08T10:06:21.387Z,89.56
2022-10-08T10:07:21.246Z,89.56
2022-10-08T10:08:21.236Z,89.66
2022-10-08T10:09:21.236Z,89.66
2022-10-08T10:10:21.230Z,89.66
2022-10-08T10:11:21.247Z,89.56
2022-10-08T10:12:21.212Z,89.66
2022-10-08T10:13:21.214Z,89.62
2022-10-08T10:14:21.199Z,89.52
2022-10-08T10:15:21.179Z,89.62
2022-10-08T10:16:21.213Z,89.52
2022-10-08T10:17:21.178Z,89.52
2022-10-08T10:18:21.151Z,89.42
2022-10-08T10:19:21.160Z,89.42
2022-10-08T10:20:21.130Z,89.42
2022-10-08T10:21:21.144Z,89.42
2022-10-08T10:22:21.131Z,89.42
2022-10-08T10:23:21.130Z,89.42
2022-10-08T10:24:21.115Z,89.42
2022-10-08T10:25:21.105Z,89.42
2022-10-08T10:26:21.097Z,89.52
2022-10-08T10:27:21.073Z,89.52
2022-10-08T10:28:21.151Z,89.52
2022-10-08T10:29:21.077Z,89.52
2022-10-08T10:30:21.056Z,89.48
2022-10-08T10:31:21.091Z,89.37
2022-10-08T10:32:21.530Z,89.48
2022-10-08T10:33:21.025Z,89.48
2022-10-08T10:34:21.029Z,89.48
2022-10-08T10:35:21.077Z,89.58
2022-10-08T10:36:20.997Z,89.37
2022-10-08T10:37:21.002Z,89.37
2022-10-08T10:38:20.987Z,89.37
2022-10-08T10:39:20.978Z,89.28
2022-10-08T10:40:20.980Z,89.28
2022-10-08T10:41:20.971Z,89.28
2022-10-08T10:42:20.956Z,89.17
2022-10-08T10:43:20.938Z,89.17
2022-10-08T10:44:20.930Z,89.17
2022-10-08T10:45:20.920Z,89.28
2022-10-08T10:46:20.976Z,89.28
2022-10-08T10:47:20.924Z,89.28
2022-10-08T10:48:20.905Z,89.28
2022-10-08T10:49:20.883Z,89.23
2022-10-08T10:50:20.886Z,89.34
2022-10-08T10:51:20.862Z,89.23
2022-10-08T10:52:20.864Z,89.13
2022-10-08T10:53:20.852Z,89.13
2022-10-08T10:54:20.843Z,89.13
2022-10-08T10:55:20.837Z,89.13
2022-10-08T10:56:20.853Z,89.03
2022-10-08T10:57:20.804Z,89.03
2022-10-08T10:58:20.805Z,89.03
2022-10-08T10:59:20.818Z,89.03
2022-10-08T11:00:20.895Z,89.03
2022-10-08T11:01:20.835Z,89.03
2022-10-08T11:02:20.808Z,89.03
2022-10-08T11:03:20.769Z,88.93
2022-10-08T11:04:20.748Z,88.83
2022-10-08T11:05:20.770Z,88.83
2022-10-08T11:06:20.735Z,88.83
2022-10-08T11:07:20.731Z,88.83
2022-10-08T11:08:20.732Z,88.73
2022-10-08T11:09:20.712Z,88.63
2022-10-08T11:10:20.699Z,88.63
2022-10-08T11:11:20.709Z,88.63
2022-10-08T11:12:20.694Z,88.73
2022-10-08T11:13:20.663Z,88.73
2022-10-08T11:14:20.682Z,88.73
2022-10-08T11:15:20.651Z,88.73
2022-10-08T11:16:20.672Z,88.73
2022-10-08T11:17:22.214Z,88.83
2022-10-08T11:18:20.637Z,88.77
2022-10-08T11:19:20.612Z,88.77
2022-10-08T11:20:20.626Z,88.63
2022-10-08T11:21:20.607Z,88.57
2022-10-08T11:22:20.594Z,88.57
2022-10-08T11:23:20.597Z,88.67
2022-10-08T11:24:20.576Z,88.67
2022-10-08T11:25:20.564Z,88.57
2022-10-08T11:26:23.147Z,88.57
2022-10-08T11:27:20.559Z,88.57
2022-10-08T11:28:20.625Z,88.57
2022-10-08T11:29:20.560Z,88.57
2022-10-08T11:30:20.517Z,88.47
2022-10-08T11:31:20.550Z,88.47
2022-10-08T11:32:20.508Z,88.47
2022-10-08T11:33:20.502Z,88.37
2022-10-08T11:34:20.488Z,88.47
2022-10-08T11:35:20.502Z,88.57
2022-10-08T11:36:20.492Z,88.47
2022-10-08T11:37:20.473Z,88.47
2022-10-08T11:38:20.459Z,88.37
2022-10-08T11:39:20.449Z,88.47
2022-10-08T11:40:20.450Z,88.47
2022-10-08T11:41:20.446Z,88.47
2022-10-08T11:42:20.422Z,88.26
2022-10-08T11:43:20.422Z,88.26
2022-10-08T11:44:20.403Z,88.37
2022-10-08T11:45:20.393Z,88.37
2022-10-08T11:46:20.421Z,88.37
2022-10-08T11:47:20.404Z,88.37
2022-10-08T11:48:20.364Z,88.37
2022-10-08T11:49:20.367Z,88.47
2022-10-08T11:50:20.345Z,88.47
2022-10-08T11:51:20.349Z,88.47
2022-10-08T11:52:20.335Z,88.61
2022-10-08T11:53:20.338Z,88.61
2022-10-08T11:54:20.330Z,88.61
2022-10-08T11:55:20.314Z,88.61
2022-10-08T11:56:20.296Z,88.71
2022-10-08T11:57:20.290Z,88.71
2022-10-08T11:58:20.291Z,88.71
2022-10-08T11:59:20.292Z,88.71
2022-10-08T12:00:20.258Z,88.81
2022-10-08T12:01:20.262Z,88.81
2022-10-08T12:02:20.327Z,88.92
2022-10-08T12:03:20.398Z,88.92
2022-10-08T12:04:20.241Z,89.01
2022-10-08T12:05:20.233Z,89.01
2022-10-08T12:06:20.228Z,89.01
2022-10-08T12:07:20.211Z,88.92
2022-10-08T12:08:20.204Z,88.92
2022-10-08T12:09:20.199Z,88.92
2022-10-08T12:10:20.185Z,88.92
2022-10-08T12:11:20.196Z,88.92
2022-10-08T12:12:20.161Z,88.92
2022-10-08T12:13:20.143Z,88.92
2022-10-08T12:14:20.145Z,88.92
2022-10-08T12:15:20.137Z,88.92
2022-10-08T12:16:20.202Z,88.92
2022-10-08T12:17:20.137Z,89.01
2022-10-08T12:18:23.728Z,88.92
2022-10-08T12:19:20.095Z,88.92
2022-10-08T12:20:20.085Z,88.92
2022-10-08T12:21:20.090Z,89.01
2022-10-08T12:22:20.080Z,89.01
2022-10-08T12:23:20.070Z,89.01
2022-10-08T12:24:20.055Z,89.01
2022-10-08T12:25:20.051Z,89.01
2022-10-08T12:26:20.038Z,88.92
2022-10-08T12:27:20.031Z,88.92
2022-10-08T12:28:20.048Z,88.92
2022-10-08T12:29:20.022Z,88.92
2022-10-08T12:30:20.025Z,88.81
2022-10-08T12:31:20.045Z,88.92
2022-10-08T12:32:19.996Z,88.92
2022-10-08T12:33:19.984Z,88.92
2022-10-08T12:34:19.976Z,89.01
2022-10-08T12:35:19.956Z,88.92
2022-10-08T12:36:19.942Z,88.92
2022-10-08T12:37:19.931Z,88.92
2022-10-08T12:38:19.933Z,88.92
2022-10-08T12:39:19.923Z,88.92
2022-10-08T12:40:19.903Z,88.92
2022-10-08T12:41:19.903Z,89.01
2022-10-08T12:42:19.890Z,89.01
2022-10-08T12:43:19.875Z,88.92
2022-10-08T12:44:19.879Z,88.92
2022-10-08T12:45:19.869Z,88.92
2022-10-08T12:46:19.886Z,89.01
2022-10-08T12:47:19.870Z,88.92
2022-10-08T12:48:19.849Z,88.92
2022-10-08T12:49:19.831Z,88.92
2022-10-08T12:50:19.816Z,88.92
2022-10-08T12:51:19.809Z,88.92
2022-10-08T12:52:19.816Z,88.92